Time;durP1;ratioP1;P1;durP2;ratioP2;P2;SDS_P1;SDS_P2;PMS_P1;PMS_P2;Temp;Humidity;BMP_temperature;BMP_pressure;BME280_temperature;BME280_humidity;BME280_pressure;Samples;Min_cycle;Max_cycle;Signal;HPM_P1;HPM_P2
2021/11/21 00:00:08;;;;;;;2.90;2.40;;;22.70;43.60;;;;;;1847405;78;21044;-50
2021/11/21 00:02:36;;;;;;;3.37;2.80;;;22.70;43.60;;;;;;1847488;77;21505;-49
2021/11/21 00:05:04;;;;;;;2.60;2.40;;;22.70;43.60;;;;;;1847473;77;21595;-50
2021/11/21 00:07:32;;;;;;;2.90;2.40;;;22.70;43.60;;;;;;1847463;78;21102;-46
2021/11/21 00:10:01;;;;;;;2.60;2.40;;;22.70;43.60;;;;;;1847642;78;21553;-49
2021/11/21 00:12:38;;;;;;;2.65;2.45;;;22.70;43.50;;;;;;1847515;78;21092;-47
2021/11/21 00:15:06;;;;;;;3.10;2.77;;;22.70;43.60;;;;;;1847508;78;21508;-47
2021/11/21 00:17:34;;;;;;;2.70;2.50;;;22.60;43.50;;;;;;1847488;78;21103;-48
2021/11/21 00:20:02;;;;;;;2.98;2.67;;;22.60;43.60;;;;;;1847648;78;21533;-49
2021/11/21 00:22:34;;;;;;;2.67;2.47;;;22.60;43.60;;;;;;1849940;77;21568;-48
2021/11/21 00:24:58;;;;;;;2.72;2.50;;;22.60;43.60;;;;;;1852026;77;21048;-49
2021/11/21 00:27:26;;;;;;;2.75;2.52;;;22.60;43.60;;;;;;1853041;77;21132;-47
2021/11/21 00:29:54;;;;;;;3.00;2.70;;;22.70;43.60;;;;;;1853143;77;21544;-46
2021/11/21 00:32:22;;;;;;;2.87;2.60;;;22.60;43.50;;;;;;1852978;76;21099;-46
2021/11/21 00:34:50;;;;;;;2.80;2.52;;;22.70;43.60;;;;;;1853157;77;21087;-47
2021/11/21 00:37:17;;;;;;;2.87;2.67;;;22.60;43.50;;;;;;1853153;77;21512;-46
2021/11/21 00:39:45;;;;;;;2.80;2.47;;;22.70;43.50;;;;;;1853055;77;21043;-50
2021/11/21 00:42:15;;;;;;;3.20;2.90;;;22.70;43.50;;;;;;1853056;77;21012;-46
2021/11/21 00:44:41;;;;;;;2.60;2.40;;;22.60;43.50;;;;;;1852535;77;21162;-48
2021/11/21 00:47:10;;;;;;;2.95;2.65;;;22.70;43.60;;;;;;1852877;77;21067;-50
2021/11/21 00:49:38;;;;;;;2.90;2.70;;;22.60;43.50;;;;;;1852841;77;21064;-50
2021/11/21 00:52:06;;;;;;;2.67;2.47;;;22.60;43.50;;;;;;1852854;77;21117;-48
2021/11/21 00:57:18;;;;;;;2.98;2.77;;;22.60;43.50;;;;;;1852817;77;21096;-50
2021/11/21 00:59:46;;;;;;;2.33;2.12;;;22.60;43.60;;;;;;1852832;77;21075;-49
2021/11/21 01:02:13;;;;;;;3.10;2.80;;;22.60;43.60;;;;;;1852840;77;21016;-51
2021/11/21 01:04:43;;;;;;;2.72;2.45;;;22.60;43.60;;;;;;1852847;77;21587;-45
2021/11/21 01:07:11;;;;;;;3.20;2.90;;;22.60;44.10;;;;;;1852901;77;21516;-45
2021/11/21 01:09:39;;;;;;;2.75;2.55;;;22.60;43.50;;;;;;1852936;77;21153;-45
2021/11/21 01:12:08;;;;;;;3.30;3.00;;;22.60;43.50;;;;;;1852805;77;21086;-50
2021/11/21 01:14:35;;;;;;;2.90;2.62;;;22.60;43.50;;;;;;1852899;77;21087;-47
2021/11/21 01:17:03;;;;;;;3.10;2.80;;;22.60;43.50;;;;;;1852872;77;21048;-48
2021/11/21 01:19:30;;;;;;;3.10;2.72;;;22.60;43.50;;;;;;1852826;77;21154;-49
2021/11/21 01:21:58;;;;;;;3.02;2.72;;;22.70;43.50;;;;;;1852731;77;21083;-51
2021/11/21 01:24:26;;;;;;;2.72;2.52;;;22.60;43.50;;;;;;1852890;77;21556;-48
2021/11/21 01:26:53;;;;;;;2.80;2.60;;;22.60;43.50;;;;;;1852922;77;21196;-49
2021/11/21 01:29:21;;;;;;;2.90;2.60;;;22.60;43.50;;;;;;1852841;77;21088;-50
2021/11/21 01:31:49;;;;;;;3.02;2.72;;;22.70;43.60;;;;;;1852808;76;21110;-48
2021/11/21 01:34:17;;;;;;;3.05;2.75;;;22.60;43.60;;;;;;1852957;77;21528;-47
2021/11/21 01:36:44;;;;;;;2.70;2.45;;;22.60;43.50;;;;;;1852919;77;21590;-49
2021/11/21 01:39:12;;;;;;;3.20;2.90;;;22.60;43.60;;;;;;1852802;77;21161;-50
2021/11/21 01:41:39;;;;;;;3.27;2.87;;;22.60;43.50;;;;;;1852903;77;21533;-50
2021/11/21 01:44:08;;;;;;;3.55;2.70;;;22.60;43.50;;;;;;1852810;77;21128;-51
2021/11/21 01:46:37;;;;;;;2.52;2.33;;;22.60;43.60;;;;;;1852872;77;21087;-46
2021/11/21 01:49:05;;;;;;;3.30;2.92;;;22.60;43.60;;;;;;1852960;77;21525;-46
2021/11/21 01:51:33;;;;;;;2.52;2.33;;;22.60;43.50;;;;;;1852895;77;21532;-49
2021/11/21 01:54:01;;;;;;;3.00;2.80;;;22.60;43.60;;;;;;1852798;77;21075;-47
2021/11/21 01:56:28;;;;;;;3.05;2.75;;;22.60;43.50;;;;;;1852913;77;21533;-45
2021/11/21 01:58:55;;;;;;;2.87;2.60;;;22.60;43.60;;;;;;1852809;77;21059;-47
2021/11/21 02:01:23;;;;;;;3.02;2.67;;;22.60;43.60;;;;;;1852812;77;21132;-46
2021/11/21 02:03:51;;;;;;;3.02;2.83;;;22.60;43.60;;;;;;1852792;77;21582;-49
2021/11/21 02:06:18;;;;;;;2.90;2.60;;;22.60;43.60;;;;;;1852794;77;21051;-46
2021/11/21 02:08:46;;;;;;;3.10;2.80;;;22.60;43.60;;;;;;1852819;77;21449;-50
2021/11/21 02:11:14;;;;;;;2.60;2.40;;;22.60;43.70;;;;;;1852914;77;21118;-47
2021/11/21 02:13:41;;;;;;;3.10;2.80;;;22.60;43.60;;;;;;1852792;77;21153;-47
2021/11/21 02:16:10;;;;;;;3.15;2.80;;;22.60;43.60;;;;;;1852804;77;21130;-49
2021/11/21 02:18:38;;;;;;;3.05;2.75;;;22.60;43.60;;;;;;1852833;77;21549;-50
2021/11/21 02:21:05;;;;;;;3.00;2.70;;;22.60;43.60;;;;;;1852767;77;21095;-48
2021/11/21 02:23:34;;;;;;;3.25;2.90;;;22.60;43.60;;;;;;1850184;77;21098;-49
2021/11/21 02:26:01;;;;;;;3.42;2.83;;;22.60;43.70;;;;;;1847455;78;21121;-48
2021/11/21 02:28:29;;;;;;;2.65;2.45;;;22.50;43.60;;;;;;1847473;78;21125;-48
2021/11/21 02:30:57;;;;;;;2.87;2.67;;;22.60;43.70;;;;;;1847532;76;21107;-47
2021/11/21 02:33:24;;;;;;;2.72;2.52;;;22.60;43.70;;;;;;1847447;78;21571;-49
2021/11/21 02:35:53;;;;;;;2.55;2.35;;;22.50;43.60;;;;;;1847482;78;21505;-48
2021/11/21 02:38:22;;;;;;;3.00;2.72;;;22.50;43.60;;;;;;1847485;78;21114;-49
2021/11/21 02:40:49;;;;;;;2.70;2.50;;;22.50;43.60;;;;;;1847451;78;21044;-48
2021/11/21 02:43:17;;;;;;;2.85;2.65;;;22.50;43.60;;;;;;1847435;77;21516;-49
2021/11/21 02:45:45;;;;;;;2.62;2.35;;;22.60;43.70;;;;;;1847493;78;21188;-46
2021/11/21 02:48:15;;;;;;;2.83;2.62;;;22.50;43.70;;;;;;1847469;77;21121;-46
2021/11/21 02:50:42;;;;;;;2.75;2.55;;;22.60;43.70;;;;;;1847049;78;21540;-50
2021/11/21 02:53:10;;;;;;;2.75;2.55;;;22.60;43.70;;;;;;1847579;78;21048;-50
2021/11/21 02:55:37;;;;;;;2.72;2.52;;;22.50;43.70;;;;;;1847455;78;21087;-50
2021/11/21 02:58:05;;;;;;;2.95;2.45;;;22.60;43.70;;;;;;1847471;78;21118;-47
2021/11/21 03:00:33;;;;;;;2.80;2.60;;;22.60;43.70;;;;;;1847511;78;21466;-50
2021/11/21 03:03:01;;;;;;;2.33;2.12;;;22.50;43.70;;;;;;1847362;78;21170;-47
2021/11/21 03:05:28;;;;;;;2.40;2.20;;;22.60;43.70;;;;;;1847435;78;21052;-49
2021/11/21 03:07:56;;;;;;;2.62;2.42;;;22.50;43.70;;;;;;1847452;78;21142;-47
2021/11/21 03:10:23;;;;;;;2.58;2.37;;;22.50;43.70;;;;;;1847686;78;21517;-46
2021/11/21 03:12:58;;;;;;;2.52;2.33;;;22.50;43.70;;;;;;1847552;78;21189;-48
2021/11/21 03:15:22;;;;;;;2.67;2.40;;;22.50;43.80;;;;;;1845863;78;21067;-47
2021/11/21 03:17:50;;;;;;;2.70;2.50;;;22.50;43.80;;;;;;1847451;78;21052;-48
2021/11/21 03:20:19;;;;;;;2.20;2.10;;;22.50;43.80;;;;;;1847457;78;21133;-46
2021/11/21 03:22:47;;;;;;;2.80;2.60;;;22.50;43.70;;;;;;1847407;78;21102;-48
2021/11/21 03:25:15;;;;;;;2.40;2.20;;;22.50;43.70;;;;;;1847534;77;21662;-47
2021/11/21 03:27:42;;;;;;;2.47;2.25;;;22.50;43.80;;;;;;1847515;77;21639;-47
2021/11/21 03:30:11;;;;;;;2.52;2.33;;;22.50;43.80;;;;;;1847401;78;21602;-46
2021/11/21 03:32:39;;;;;;;2.58;2.27;;;22.50;43.80;;;;;;1847471;76;21622;-47
2021/11/21 03:35:07;;;;;;;2.50;2.30;;;22.50;43.80;;;;;;1847418;78;21082;-47
2021/11/21 03:37:35;;;;;;;2.37;2.17;;;22.50;43.90;;;;;;1847414;78;21586;-49
2021/11/21 03:40:03;;;;;;;2.27;2.08;;;22.50;43.90;;;;;;1847432;78;21079;-47
2021/11/21 03:42:31;;;;;;;2.22;2.05;;;22.50;43.90;;;;;;1847402;78;21044;-49
2021/11/21 03:44:59;;;;;;;2.22;2.02;;;22.50;44.00;;;;;;1847596;78;21590;-50
2021/11/21 03:47:26;;;;;;;2.08;1.90;;;22.50;44.50;;;;;;1847595;78;21530;-49
2021/11/21 03:49:54;;;;;;;2.22;2.10;;;22.50;43.90;;;;;;1847645;78;21040;-49
2021/11/21 03:52:21;;;;;;;1.92;1.72;;;22.50;44.00;;;;;;1847664;78;21635;-48
2021/11/21 03:54:48;;;;;;;1.98;1.87;;;22.50;44.00;;;;;;1847537;78;21068;-47
2021/11/21 03:57:16;;;;;;;1.82;1.72;;;22.50;44.00;;;;;;1847465;78;21639;-46
2021/11/21 03:59:44;;;;;;;2.00;1.90;;;22.50;44.00;;;;;;1847551;78;21090;-50
2021/11/21 04:02:11;;;;;;;2.42;2.20;;;22.50;43.90;;;;;;1847494;78;21083;-50
2021/11/21 04:04:39;;;;;;;1.70;1.60;;;22.50;44.00;;;;;;1847503;78;21125;-47
2021/11/21 04:07:06;;;;;;;1.92;1.82;;;22.50;44.00;;;;;;1847621;78;21174;-52
2021/11/21 04:09:34;;;;;;;1.87;1.75;;;22.50;44.10;;;;;;1847507;78;21105;-46
2021/11/21 04:12:01;;;;;;;2.20;2.00;;;22.50;44.10;;;;;;1847606;78;21091;-51
2021/11/21 04:14:29;;;;;;;1.70;1.60;;;22.50;44.10;;;;;;1847535;78;21107;-49
2021/11/21 04:16:56;;;;;;;1.70;1.60;;;22.50;44.00;;;;;;1847625;77;21529;-51
2021/11/21 04:19:24;;;;;;;1.55;1.45;;;22.50;44.00;;;;;;1847516;78;21112;-46
2021/11/21 04:21:51;;;;;;;2.33;1.75;;;22.50;44.10;;;;;;1847506;78;21087;-49
2021/11/21 04:24:19;;;;;;;2.10;1.90;;;22.50;44.00;;;;;;1847454;77;21212;-47
2021/11/21 04:26:48;;;;;;;1.72;1.62;;;22.50;44.00;;;;;;1847503;78;21119;-49
2021/11/21 04:29:15;;;;;;;1.52;1.42;;;22.50;44.00;;;;;;1847451;78;21120;-50
2021/11/21 04:31:43;;;;;;;1.62;1.52;;;22.50;44.10;;;;;;1847561;76;21577;-49
2021/11/21 04:34:10;;;;;;;1.50;1.40;;;22.50;44.10;;;;;;1847562;78;21146;-48
2021/11/21 04:36:38;;;;;;;1.80;1.70;;;22.50;44.10;;;;;;1847598;78;21555;-48
2021/11/21 04:39:05;;;;;;;1.77;1.67;;;22.50;44.10;;;;;;1847506;78;21563;-46
2021/11/21 04:41:33;;;;;;;1.80;1.70;;;22.50;44.00;;;;;;1847628;78;21598;-46
2021/11/21 04:44:02;;;;;;;1.60;1.50;;;22.50;44.00;;;;;;1847584;78;21545;-50
2021/11/21 04:46:33;;;;;;;1.40;1.30;;;22.50;44.10;;;;;;1847553;78;21577;-46
2021/11/21 04:49:01;;;;;;;1.50;1.40;;;22.50;44.40;;;;;;1847544;78;21092;-47
2021/11/21 04:51:28;;;;;;;1.65;1.55;;;22.50;44.10;;;;;;1847511;78;21079;-49
2021/11/21 04:53:56;;;;;;;1.70;1.60;;;22.50;44.10;;;;;;1847456;78;21083;-45
2021/11/21 04:56:24;;;;;;;1.30;1.20;;;22.50;44.10;;;;;;1847546;78;21112;-46
2021/11/21 04:58:52;;;;;;;1.42;1.25;;;22.50;44.10;;;;;;1847618;78;21582;-50
2021/11/21 05:01:19;;;;;;;1.22;1.12;;;22.50;44.10;;;;;;1847526;78;21044;-47
2021/11/21 05:03:47;;;;;;;1.60;1.50;;;22.50;44.10;;;;;;1847446;78;21564;-51
2021/11/21 05:06:15;;;;;;;1.40;1.30;;;22.50;44.00;;;;;;1847702;78;21596;-48
2021/11/21 05:08:42;;;;;;;1.50;1.40;;;22.50;44.00;;;;;;1847506;78;21063;-50
2021/11/21 05:11:10;;;;;;;1.30;1.20;;;22.50;44.00;;;;;;1847519;78;21059;-49
2021/11/21 05:13:37;;;;;;;1.52;1.40;;;22.50;44.00;;;;;;1847477;78;21571;-48
2021/11/21 05:16:05;;;;;;;1.27;1.17;;;22.50;44.00;;;;;;1847535;77;21189;-48
2021/11/21 05:18:32;;;;;;;1.70;1.40;;;22.50;44.10;;;;;;1847489;78;21189;-48
2021/11/21 05:21:00;;;;;;;1.20;1.10;;;22.50;43.90;;;;;;1847478;78;21071;-47
2021/11/21 05:23:27;;;;;;;2.52;1.50;;;22.50;44.00;;;;;;1847463;78;21497;-48
2021/11/21 05:25:55;;;;;;;1.50;1.20;;;22.50;44.00;;;;;;1851926;77;21571;-48
2021/11/21 05:28:23;;;;;;;1.27;1.17;;;22.50;44.00;;;;;;1852851;77;21536;-46
2021/11/21 05:30:51;;;;;;;1.62;1.32;;;22.50;43.90;;;;;;1852816;76;21118;-49
2021/11/21 05:33:19;;;;;;;1.25;1.15;;;22.50;43.90;;;;;;1853011;77;21052;-47
2021/11/21 05:35:47;;;;;;;1.27;1.17;;;22.50;43.90;;;;;;1853141;77;21063;-47
2021/11/21 05:38:14;;;;;;;1.60;1.50;;;22.50;43.80;;;;;;1853041;77;21059;-47
2021/11/21 05:40:42;;;;;;;2.30;1.17;;;22.50;43.80;;;;;;1853046;77;21113;-48
2021/11/21 05:43:09;;;;;;;1.42;1.20;;;22.50;43.80;;;;;;1853033;77;21071;-48
2021/11/21 05:45:36;;;;;;;1.40;1.30;;;22.50;43.80;;;;;;1853066;77;21067;-48
2021/11/21 05:48:05;;;;;;;0.78;0.78;;;22.50;43.80;;;;;;1853008;77;21545;-51
2021/11/21 05:50:32;;;;;;;1.60;1.50;;;22.50;43.80;;;;;;1853111;77;21516;-49
2021/11/21 05:53:00;;;;;;;1.20;1.10;;;22.50;44.30;;;;;;1853118;77;21091;-49
2021/11/21 05:55:27;;;;;;;1.32;1.10;;;22.50;43.80;;;;;;1853043;77;21052;-48
2021/11/21 05:57:54;;;;;;;1.30;0.88;;;22.50;43.70;;;;;;1853105;77;21637;-47
2021/11/21 06:00:23;;;;;;;1.30;1.10;;;22.50;43.70;;;;;;1853008;77;21489;-48
2021/11/21 06:02:51;;;;;;;1.30;1.20;;;22.50;43.70;;;;;;1852981;77;21114;-49
2021/11/21 06:05:19;;;;;;;1.27;1.20;;;22.50;43.70;;;;;;1853210;77;21531;-47
2021/11/21 06:07:46;;;;;;;1.15;1.05;;;22.50;43.60;;;;;;1853115;77;21527;-50
2021/11/21 06:10:13;;;;;;;1.30;1.20;;;22.50;43.60;;;;;;1853020;77;21125;-49
2021/11/21 06:12:41;;;;;;;1.07;0.98;;;22.50;43.60;;;;;;1853023;77;21504;-48
2021/11/21 06:15:09;;;;;;;1.22;1.10;;;22.50;43.60;;;;;;1852809;77;21571;-51
2021/11/21 06:17:36;;;;;;;1.10;0.90;;;22.50;43.50;;;;;;1852942;77;21053;-50
2021/11/21 06:20:06;;;;;;;1.30;1.17;;;22.50;43.60;;;;;;1852933;77;21091;-49
2021/11/21 06:22:36;;;;;;;4.15;1.00;;;22.50;43.50;;;;;;1851698;77;21048;-50
2021/11/21 06:25:05;;;;;;;5.75;1.55;;;22.50;43.50;;;;;;1851320;77;21198;-50
2021/11/21 06:27:33;;;;;;;5.80;1.10;;;22.50;43.40;;;;;;1847447;78;21067;-48
2021/11/21 06:30:00;;;;;;;10.85;1.17;;;22.50;43.50;;;;;;1847463;78;21476;-47
2021/11/21 06:32:27;;;;;;;12.03;1.20;;;22.40;43.30;;;;;;1847450;76;21095;-47
2021/11/21 06:34:55;;;;;;;4.97;1.00;;;22.40;43.30;;;;;;1847636;78;21611;-48
2021/11/21 06:37:22;;;;;;;11.10;1.82;;;22.40;43.20;;;;;;1847567;77;21533;-47
2021/11/21 06:39:50;;;;;;;9.55;1.42;;;22.40;43.10;;;;;;1847564;78;21618;-47
2021/11/21 06:42:17;;;;;;;5.12;1.15;;;22.50;43.20;;;;;;1847430;78;21016;-46
2021/11/21 06:44:45;;;;;;;3.80;1.10;;;22.50;43.10;;;;;;1847457;78;21118;-47
2021/11/21 06:47:13;;;;;;;8.18;1.10;;;22.50;43.10;;;;;;1847475;78;21075;-47
2021/11/21 06:49:40;;;;;;;3.35;0.88;;;22.50;43.00;;;;;;1847459;78;21066;-48
2021/11/21 06:52:09;;;;;;;3.52;1.10;;;22.40;42.90;;;;;;1847498;77;21051;-46
2021/11/21 06:54:36;;;;;;;3.17;1.02;;;22.50;43.00;;;;;;1847456;78;21125;-48
2021/11/21 06:57:04;;;;;;;3.52;0.95;;;22.50;42.80;;;;;;1847504;78;21630;-50
2021/11/21 06:59:32;;;;;;;2.42;1.10;;;22.50;42.80;;;;;;1847442;78;21141;-47
2021/11/21 07:01:59;;;;;;;1.65;0.90;;;22.50;42.70;;;;;;1847530;78;21092;-47
2021/11/21 07:04:27;;;;;;;2.47;1.07;;;22.50;42.60;;;;;;1847639;78;21104;-50
2021/11/21 07:06:54;;;;;;;2.08;1.40;;;22.50;42.70;;;;;;1847653;78;21108;-50
2021/11/21 07:09:21;;;;;;;1.77;1.05;;;22.50;42.70;;;;;;1847638;78;21107;-48
2021/11/21 07:11:49;;;;;;;2.65;1.00;;;22.50;42.60;;;;;;1847641;78;21099;-48
2021/11/21 07:14:16;;;;;;;1.90;1.10;;;22.50;42.60;;;;;;1847692;78;21572;-52
2021/11/21 07:16:49;;;;;;;2.50;1.00;;;22.50;42.60;;;;;;1847657;78;21091;-49
2021/11/21 07:19:16;;;;;;;2.37;1.35;;;22.50;42.60;;;;;;1847775;78;21071;-47
2021/11/21 07:21:44;;;;;;;0.98;0.80;;;22.50;42.50;;;;;;1847755;78;21594;-48
2021/11/21 07:24:13;;;;;;;2.40;0.93;;;22.50;42.50;;;;;;1847662;78;21129;-50
2021/11/21 07:26:41;;;;;;;1.98;0.82;;;22.40;42.30;;;;;;1851630;77;21618;-48
2021/11/21 07:29:10;;;;;;;2.80;1.20;;;22.50;42.20;;;;;;1853248;77;21056;-46
2021/11/21 07:31:37;;;;;;;1.87;1.00;;;22.50;42.20;;;;;;1853101;76;21695;-47
2021/11/21 07:34:05;;;;;;;2.92;1.07;;;22.50;42.20;;;;;;1853211;77;21571;-48
2021/11/21 07:36:33;;;;;;;1.65;0.90;;;22.50;42.10;;;;;;1853168;77;21571;-48
2021/11/21 07:39:00;;;;;;;1.72;1.07;;;22.50;42.10;;;;;;1853104;77;21494;-46
2021/11/21 07:41:27;;;;;;;1.65;1.27;;;22.50;42.00;;;;;;1853083;77;21040;-46
2021/11/21 07:43:56;;;;;;;1.98;0.85;;;22.50;42.00;;;;;;1853057;77;21404;-48
2021/11/21 07:46:26;;;;;;;3.05;1.02;;;22.40;41.80;;;;;;1853180;77;21517;-48
2021/11/21 07:48:52;;;;;;;1.95;1.02;;;22.50;41.90;;;;;;1852647;77;21083;-46
2021/11/21 07:51:19;;;;;;;1.85;0.80;;;22.50;41.70;;;;;;1853045;77;21101;-46
2021/11/21 07:53:47;;;;;;;2.17;0.88;;;22.50;41.80;;;;;;1853059;77;21488;-49
2021/11/21 07:56:14;;;;;;;6.12;0.90;;;22.40;41.70;;;;;;1853169;77;21517;-49
2021/11/21 07:58:42;;;;;;;1.72;0.70;;;22.40;41.60;;;;;;1853092;77;21087;-51
2021/11/21 08:01:09;;;;;;;4.55;1.12;;;22.40;41.50;;;;;;1853045;77;21083;-48
2021/11/21 08:03:37;;;;;;;1.75;0.93;;;22.40;41.50;;;;;;1853044;77;21094;-49
2021/11/21 08:06:04;;;;;;;2.33;0.95;;;22.50;41.60;;;;;;1853280;77;21537;-49
2021/11/21 08:08:32;;;;;;;1.77;0.90;;;22.40;41.50;;;;;;1853079;77;21052;-47
2021/11/21 08:10:59;;;;;;;2.50;1.25;;;22.50;41.60;;;;;;1853157;77;21497;-48
2021/11/21 08:13:27;;;;;;;1.67;1.20;;;22.40;41.40;;;;;;1853081;77;21504;-46
2021/11/21 08:15:55;;;;;;;2.83;1.15;;;22.40;40.90;;;;;;1853152;77;21500;-47
2021/11/21 08:18:24;;;;;;;1.30;0.90;;;22.40;41.40;;;;;;1853018;77;21117;-47
2021/11/21 08:20:53;;;;;;;1.50;1.05;;;22.40;41.50;;;;;;1853164;77;21480;-46
2021/11/21 08:23:20;;;;;;;1.62;0.65;;;22.40;41.40;;;;;;1852971;77;21086;-49
2021/11/21 08:25:47;;;;;;;1.15;0.80;;;22.40;41.40;;;;;;1852919;77;21136;-48
2021/11/21 08:28:15;;;;;;;3.27;0.80;;;22.40;41.30;;;;;;1853036;77;21075;-46
2021/11/21 08:30:43;;;;;;;0.98;0.57;;;22.40;41.10;;;;;;1853158;76;21137;-46
2021/11/21 08:33:10;;;;;;;2.35;1.00;;;22.40;41.10;;;;;;1853043;77;21083;-47
2021/11/21 08:35:38;;;;;;;1.15;0.70;;;22.40;41.10;;;;;;1853050;77;21149;-46
2021/11/21 08:38:06;;;;;;;1.57;0.80;;;22.40;41.10;;;;;;1853092;77;21134;-47
2021/11/21 08:40:33;;;;;;;0.98;0.60;;;22.40;41.00;;;;;;1853060;77;21067;-45
2021/11/21 08:43:01;;;;;;;1.17;0.68;;;22.40;40.90;;;;;;1853035;77;21149;-47
2021/11/21 08:45:32;;;;;;;0.90;0.60;;;22.40;40.80;;;;;;1853016;77;21047;-48
2021/11/21 08:47:58;;;;;;;2.05;0.68;;;22.40;40.70;;;;;;1852632;77;21134;-49
2021/11/21 08:50:25;;;;;;;0.80;0.60;;;22.40;40.70;;;;;;1853142;77;21095;-47
2021/11/21 08:52:53;;;;;;;1.57;0.78;;;22.40;40.80;;;;;;1853066;77;21079;-47
2021/11/21 08:55:20;;;;;;;1.00;0.57;;;22.40;40.70;;;;;;1853148;77;21513;-48
2021/11/21 08:57:47;;;;;;;2.00;0.80;;;22.40;40.70;;;;;;1853027;77;21036;-48
2021/11/21 09:00:15;;;;;;;1.52;0.68;;;22.40;40.80;;;;;;1853044;77;21047;-47
2021/11/21 09:02:43;;;;;;;1.57;0.80;;;22.40;41.00;;;;;;1853043;77;21139;-48
2021/11/21 09:05:10;;;;;;;1.07;0.70;;;22.40;41.00;;;;;;1853109;77;21051;-48
2021/11/21 09:07:38;;;;;;;1.70;1.00;;;22.40;41.10;;;;;;1853031;77;21582;-49
2021/11/21 09:10:08;;;;;;;2.20;0.93;;;22.40;41.10;;;;;;1853061;77;21071;-48
2021/11/21 09:12:35;;;;;;;1.12;0.90;;;22.40;41.10;;;;;;1853053;77;21078;-46
2021/11/21 09:15:03;;;;;;;1.35;0.80;;;22.40;41.20;;;;;;1853042;77;21047;-46
2021/11/21 09:17:30;;;;;;;1.87;0.65;;;22.30;41.20;;;;;;1852999;77;21063;-46
2021/11/21 09:19:58;;;;;;;1.32;0.90;;;22.30;41.20;;;;;;1853021;77;21568;-49
2021/11/21 09:22:25;;;;;;;1.27;0.80;;;22.30;41.20;;;;;;1853160;77;21629;-48
2021/11/21 09:24:53;;;;;;;1.40;0.70;;;22.30;41.30;;;;;;1853039;77;21091;-48
2021/11/21 09:27:20;;;;;;;2.20;1.12;;;22.30;41.40;;;;;;1852923;77;21169;-48
2021/11/21 09:29:47;;;;;;;1.25;0.72;;;22.30;41.30;;;;;;1853045;77;21563;-46
2021/11/21 09:32:15;;;;;;;1.90;0.70;;;22.30;41.30;;;;;;1853085;76;21547;-48
2021/11/21 09:34:42;;;;;;;1.55;0.70;;;22.30;41.30;;;;;;1853027;77;21142;-47
2021/11/21 09:37:10;;;;;;;1.42;0.95;;;22.30;41.30;;;;;;1853018;77;21504;-47
2021/11/21 09:39:39;;;;;;;0.80;0.55;;;22.30;41.40;;;;;;1852989;77;21063;-47
2021/11/21 09:42:06;;;;;;;1.77;0.93;;;22.30;41.30;;;;;;1853001;77;21196;-46
2021/11/21 09:44:33;;;;;;;0.90;0.70;;;22.30;41.30;;;;;;1853005;77;21138;-47
2021/11/21 09:47:01;;;;;;;1.22;0.72;;;22.30;41.40;;;;;;1852811;77;21141;-49
2021/11/21 09:49:28;;;;;;;0.80;0.70;;;22.30;41.40;;;;;;1852805;77;21040;-50
2021/11/21 09:51:56;;;;;;;1.40;0.85;;;22.40;41.40;;;;;;1852826;77;21091;-50
2021/11/21 09:54:27;;;;;;;0.90;0.70;;;22.30;41.50;;;;;;1852837;77;21083;-47
2021/11/21 09:56:55;;;;;;;1.05;0.80;;;22.30;41.40;;;;;;1853089;77;21595;-48
2021/11/21 09:59:57;;;;;;;1.57;0.75;;;22.30;41.50;;;;;;1853006;77;21524;-51
2021/11/21 10:02:30;;;;;;;1.45;0.90;;;22.30;41.50;;;;;;1852727;77;21082;-50
2021/11/21 10:05:00;;;;;;;1.20;0.70;;;22.30;41.70;;;;;;1852982;77;21060;-46
2021/11/21 10:07:34;;;;;;;1.17;0.75;;;22.20;41.70;;;;;;1852240;77;21524;-47
2021/11/21 10:10:03;;;;;;;2.58;0.80;;;22.20;41.70;;;;;;1853091;77;21086;-48
2021/11/21 10:12:40;;;;;;;1.47;0.80;;;22.20;41.70;;;;;;1853069;77;21024;-47
2021/11/21 10:15:10;;;;;;;1.20;0.88;;;22.20;41.70;;;;;;1852996;77;21511;-47
2021/11/21 10:17:39;;;;;;;2.20;0.82;;;22.20;41.70;;;;;;1852996;77;21078;-50
2021/11/21 10:20:16;;;;;;;2.47;0.78;;;22.30;41.80;;;;;;1853033;77;21107;-50
2021/11/21 10:23:03;;;;;;;1.15;0.60;;;22.30;41.80;;;;;;1853119;77;21071;-48
2021/11/21 10:25:39;;;;;;;2.80;1.00;;;22.20;41.70;;;;;;1852999;77;21125;-46
2021/11/21 10:28:28;;;;;;;0.75;0.68;;;22.20;41.80;;;;;;1849409;77;21520;-47
2021/11/21 10:31:14;;;;;;;1.52;0.62;;;22.20;41.90;;;;;;1847037;76;21225;-48
2021/11/21 10:33:44;;;;;;;1.62;0.80;;;22.20;42.20;;;;;;1847730;78;21117;-49
2021/11/21 10:36:23;;;;;;;2.15;1.20;;;22.20;42.10;;;;;;1847671;78;21068;-47
2021/11/21 10:38:52;;;;;;;0.65;0.65;;;22.20;42.10;;;;;;1847680;78;21080;-47
2021/11/21 10:41:28;;;;;;;2.17;0.62;;;22.20;42.00;;;;;;1847670;78;21128;-47
2021/11/21 10:44:10;;;;;;;1.47;0.70;;;22.20;42.00;;;;;;1847775;78;21067;-46
2021/11/21 10:46:45;;;;;;;1.85;0.70;;;22.30;42.00;;;;;;1847646;78;21092;-48
2021/11/21 10:49:16;;;;;;;1.02;0.70;;;22.30;42.10;;;;;;1847663;78;21092;-50
2021/11/21 10:51:45;;;;;;;1.00;0.65;;;22.30;42.10;;;;;;1847694;78;21016;-51
2021/11/21 10:54:28;;;;;;;1.35;0.72;;;22.30;42.10;;;;;;1847796;78;21060;-50
2021/11/21 10:56:57;;;;;;;1.82;0.60;;;22.30;42.10;;;;;;1847646;78;21091;-48
2021/11/21 10:59:49;;;;;;;1.15;0.68;;;22.30;42.20;;;;;;1847616;78;21556;-49
2021/11/21 11:02:34;;;;;;;2.12;0.78;;;22.30;42.20;;;;;;1847817;78;21197;-47
2021/11/21 11:05:07;;;;;;;0.60;0.55;;;22.20;42.20;;;;;;1846826;78;21544;-49
2021/11/21 11:07:49;;;;;;;3.52;0.65;;;22.20;42.20;;;;;;1847646;78;21088;-49
2021/11/21 11:10:19;;;;;;;1.20;0.90;;;22.30;42.40;;;;;;1847763;78;21560;-48
2021/11/21 11:12:49;;;;;;;1.82;1.07;;;22.20;42.20;;;;;;1847853;78;21032;-51
2021/11/21 11:15:17;;;;;;;1.45;0.68;;;22.30;42.30;;;;;;1847731;78;21079;-48
2021/11/21 11:17:44;;;;;;;1.80;1.05;;;22.30;42.30;;;;;;1847733;78;21512;-50
2021/11/21 11:20:14;;;;;;;0.90;0.60;;;22.40;42.20;;;;;;1847614;78;21170;-52
2021/11/21 11:22:43;;;;;;;1.35;0.70;;;22.40;42.10;;;;;;1847804;78;21505;-48
2021/11/21 11:25:22;;;;;;;1.32;0.60;;;22.40;42.10;;;;;;1847625;78;21043;-48
2021/11/21 11:27:58;;;;;;;2.17;0.60;;;22.40;42.10;;;;;;1820824;77;21107;-48
2021/11/21 11:30:33;;;;;;;2.40;1.00;;;22.40;42.20;;;;;;1850727;77;21153;-50
2021/11/21 11:33:18;;;;;;;1.98;0.40;;;22.40;42.10;;;;;;1850535;76;21116;-50
2021/11/21 11:35:47;;;;;;;1.45;0.53;;;22.40;42.10;;;;;;1850614;77;21084;-47
2021/11/21 11:38:23;;;;;;;1.27;0.70;;;22.40;42.20;;;;;;1850757;77;21020;-47
2021/11/21 11:41:03;;;;;;;2.12;1.07;;;22.40;42.20;;;;;;1850522;77;21569;-51
2021/11/21 11:43:35;;;;;;;1.42;0.80;;;22.40;42.20;;;;;;1849681;77;21098;-46
2021/11/21 11:46:17;;;;;;;1.15;0.60;;;22.40;42.20;;;;;;1850717;77;21529;-48
2021/11/21 11:48:47;;;;;;;1.47;0.70;;;22.40;42.20;;;;;;1850580;77;21081;-52
2021/11/21 11:51:39;;;;;;;1.57;0.60;;;22.40;42.20;;;;;;1850563;77;21120;-51
2021/11/21 11:54:03;;;;;;;2.10;0.60;;;22.40;42.20;;;;;;1847804;77;21179;-47
2021/11/21 11:56:33;;;;;;;2.22;0.80;;;22.40;42.20;;;;;;1846814;77;21593;-48
2021/11/21 11:59:06;;;;;;;1.85;0.50;;;22.40;42.20;;;;;;1817479;77;21103;-50
2021/11/21 12:01:42;;;;;;;0.93;0.60;;;22.40;42.20;;;;;;1850045;77;21132;-48
2021/11/21 12:04:12;;;;;;;1.77;0.62;;;22.40;42.20;;;;;;1850565;77;21120;-49
2021/11/21 12:06:41;;;;;;;2.20;0.60;;;22.40;42.20;;;;;;1845679;77;21112;-49
2021/11/21 12:09:25;;;;;;;0.75;0.50;;;22.40;42.20;;;;;;1850896;77;21532;-47
2021/11/21 12:11:59;;;;;;;3.00;0.70;;;22.50;42.20;;;;;;1849432;77;21094;-50
2021/11/21 12:14:35;;;;;;;1.17;0.45;;;22.40;42.20;;;;;;1849478;77;21091;-47
2021/11/21 12:17:07;;;;;;;1.57;0.60;;;22.40;42.20;;;;;;1850686;77;21059;-49
2021/11/21 12:19:57;;;;;;;1.25;0.50;;;22.40;42.20;;;;;;1850906;77;21567;-46
2021/11/21 12:22:29;;;;;;;2.30;0.62;;;22.40;42.20;;;;;;1848743;77;21182;-48
2021/11/21 12:25:05;;;;;;;1.85;0.85;;;22.40;42.30;;;;;;1850675;77;21092;-47
2021/11/21 12:27:34;;;;;;;1.90;0.50;;;22.40;42.20;;;;;;1850692;77;21086;-49
2021/11/21 12:30:10;;;;;;;1.67;0.70;;;22.40;42.40;;;;;;1850394;77;21105;-49
2021/11/21 12:32:48;;;;;;;1.20;0.60;;;22.40;42.10;;;;;;1849786;76;21188;-51
2021/11/21 12:35:31;;;;;;;1.75;0.65;;;22.50;42.20;;;;;;1850488;77;21512;-48
2021/11/21 12:37:57;;;;;;;0.82;0.53;;;22.40;42.10;;;;;;1849522;77;21564;-48
2021/11/21 12:40:30;;;;;;;1.82;0.60;;;22.50;42.10;;;;;;1850481;77;21165;-48
2021/11/21 12:43:03;;;;;;;0.78;0.57;;;22.50;42.10;;;;;;1850478;77;21533;-50
2021/11/21 12:45:36;;;;;;;0.90;0.40;;;22.40;42.00;;;;;;1850342;77;21453;-48
2021/11/21 12:48:04;;;;;;;1.10;0.45;;;22.50;42.20;;;;;;1850355;77;21182;-48
2021/11/21 12:50:42;;;;;;;0.82;0.40;;;22.50;42.10;;;;;;1850437;77;21174;-52
2021/11/21 12:53:21;;;;;;;0.90;0.62;;;22.50;42.10;;;;;;1850352;77;21071;-50
2021/11/21 12:55:51;;;;;;;2.45;0.75;;;22.50;42.10;;;;;;1850524;77;21577;-49
2021/11/21 12:58:32;;;;;;;1.50;0.60;;;22.50;42.10;;;;;;1849589;77;21118;-51